sensor_id;sensor_type;location;lat;lon;timestamp;temperature;humidity
25012;DHT22;13027;49.358;11.256;2022-08-21T00:00:59;17.10;99.90
25012;DHT22;13027;49.358;11.256;2022-08-21T00:03:27;17.00;99.90
25012;DHT22;13027;49.358;11.256;2022-08-21T00:05:53;17.00;99.90
25012;DHT22;13027;49.358;11.256;2022-08-21T00:08:19;17.10;99.90
25012;DHT22;13027;49.358;11.256;2022-08-21T00:10:44;17.10;99.90
25012;DHT22;13027;49.358;11.256;2022-08-21T00:13:10;17.00;99.90
25012;DHT22;13027;49.358;11.256;2022-08-21T00:15:37;17.00;99.90
25012;DHT22;13027;49.358;11.256;2022-08-21T00:18:03;17.00;99.90
25012;DHT22;13027;49.358;11.256;2022-08-21T00:20:29;17.00;99.90
25012;DHT22;13027;49.358;11.256;2022-08-21T00:22:55;16.90;99.90
25012;DHT22;13027;49.358;11.256;2022-08-21T00:25:20;16.90;99.90
25012;DHT22;13027;49.358;11.256;2022-08-21T00:27:46;16.80;99.90
25012;DHT22;13027;49.358;11.256;2022-08-21T00:30:21;17.00;99.90
25012;DHT22;13027;49.358;11.256;2022-08-21T00:32:47;16.80;99.90
25012;DHT22;13027;49.358;11.256;2022-08-21T00:35:14;16.80;99.90
25012;DHT22;13027;49.358;11.256;2022-08-21T00:37:40;16.70;99.90
25012;DHT22;13027;49.358;11.256;2022-08-21T00:40:08;16.70;99.90
25012;DHT22;13027;49.358;11.256;2022-08-21T00:42:33;16.60;99.90
25012;DHT22;13027;49.358;11.256;2022-08-21T00:44:59;16.60;99.90
25012;DHT22;13027;49.358;11.256;2022-08-21T00:47:25;16.50;99.90
25012;DHT22;13027;49.358;11.256;2022-08-21T00:49:50;16.50;99.90
25012;DHT22;13027;49.358;11.256;2022-08-21T00:52:17;16.40;99.90
25012;DHT22;13027;49.358;11.256;2022-08-21T00:54:44;16.40;99.90
25012;DHT22;13027;49.358;11.256;2022-08-21T00:57:15;16.40;99.90
25012;DHT22;13027;49.358;11.256;2022-08-21T00:59:41;16.40;99.90
25012;DHT22;13027;49.358;11.256;2022-08-21T01:02:09;16.40;99.90
25012;DHT22;13027;49.358;11.256;2022-08-21T01:04:35;16.30;99.90
25012;DHT22;13027;49.358;11.256;2022-08-21T01:07:01;16.30;99.90
25012;DHT22;13027;49.358;11.256;2022-08-21T01:09:27;16.30;99.90
25012;DHT22;13027;49.358;11.256;2022-08-21T01:11:52;16.20;99.90
25012;DHT22;13027;49.358;11.256;2022-08-21T01:14:18;16.30;99.90
25012;DHT22;13027;49.358;11.256;2022-08-21T01:16:45;16.30;99.90
25012;DHT22;13027;49.358;11.256;2022-08-21T01:19:13;16.30;99.90
25012;DHT22;13027;49.358;11.256;2022-08-21T01:21:40;16.30;99.90
25012;DHT22;13027;49.358;11.256;2022-08-21T01:24:06;16.30;99.90
25012;DHT22;13027;49.358;11.256;2022-08-21T01:26:32;16.30;99.90
25012;DHT22;13027;49.358;11.256;2022-08-21T01:29:01;16.10;99.90
25012;DHT22;13027;49.358;11.256;2022-08-21T01:31:28;16.10;99.90
25012;DHT22;13027;49.358;11.256;2022-08-21T01:33:54;16.10;99.90
25012;DHT22;13027;49.358;11.256;2022-08-21T01:36:20;16.10;99.90
25012;DHT22;13027;49.358;11.256;2022-08-21T01:38:45;16.10;99.90
25012;DHT22;13027;49.358;11.256;2022-08-21T01:41:12;16.10;99.90
25012;DHT22;13027;49.358;11.256;2022-08-21T01:43:38;16.10;99.90
25012;DHT22;13027;49.358;11.256;2022-08-21T01:46:04;16.00;99.90
25012;DHT22;13027;49.358;11.256;2022-08-21T01:48:29;16.00;99.90
25012;DHT22;13027;49.358;11.256;2022-08-21T01:50:55;16.00;99.90
25012;DHT22;13027;49.358;11.256;2022-08-21T01:53:21;16.00;99.90
25012;DHT22;13027;49.358;11.256;2022-08-21T01:55:46;16.00;99.90
25012;DHT22;13027;49.358;11.256;2022-08-21T01:58:12;16.00;99.90
25012;DHT22;13027;49.358;11.256;2022-08-21T02:00:37;15.90;99.90
25012;DHT22;13027;49.358;11.256;2022-08-21T02:03:03;15.90;99.90
25012;DHT22;13027;49.358;11.256;2022-08-21T02:05:29;15.90;99.90
25012;DHT22;13027;49.358;11.256;2022-08-21T02:07:55;15.90;99.90
25012;DHT22;13027;49.358;11.256;2022-08-21T02:10:22;15.80;99.90
25012;DHT22;13027;49.358;11.256;2022-08-21T02:12:48;15.70;99.90
25012;DHT22;13027;49.358;11.256;2022-08-21T02:15:15;15.70;99.90
25012;DHT22;13027;49.358;11.256;2022-08-21T02:17:41;15.70;99.90
25012;DHT22;13027;49.358;11.256;2022-08-21T02:20:07;15.70;99.90
25012;DHT22;13027;49.358;11.256;2022-08-21T02:22:33;15.70;99.90
25012;DHT22;13027;49.358;11.256;2022-08-21T02:24:59;15.80;99.90
25012;DHT22;13027;49.358;11.256;2022-08-21T02:27:24;15.80;99.90
25012;DHT22;13027;49.358;11.256;2022-08-21T02:29:50;15.90;99.90
25012;DHT22;13027;49.358;11.256;2022-08-21T02:32:16;15.90;99.90
25012;DHT22;13027;49.358;11.256;2022-08-21T02:34:42;15.90;99.90
25012;DHT22;13027;49.358;11.256;2022-08-21T02:37:08;15.90;99.90
25012;DHT22;13027;49.358;11.256;2022-08-21T02:39:33;15.80;99.90
25012;DHT22;13027;49.358;11.256;2022-08-21T02:41:59;15.80;99.90
25012;DHT22;13027;49.358;11.256;2022-08-21T02:44:25;15.80;99.90
25012;DHT22;13027;49.358;11.256;2022-08-21T02:46:50;15.90;99.90
25012;DHT22;13027;49.358;11.256;2022-08-21T02:49:16;15.90;99.90
25012;DHT22;13027;49.358;11.256;2022-08-21T02:51:41;15.80;99.90
25012;DHT22;13027;49.358;11.256;2022-08-21T02:54:07;15.80;99.90
25012;DHT22;13027;49.358;11.256;2022-08-21T02:56:32;15.80;99.90
25012;DHT22;13027;49.358;11.256;2022-08-21T02:58:58;15.80;99.90
25012;DHT22;13027;49.358;11.256;2022-08-21T03:01:24;15.80;99.90
25012;DHT22;13027;49.358;11.256;2022-08-21T03:03:50;15.80;99.90
25012;DHT22;13027;49.358;11.256;2022-08-21T03:06:17;15.80;99.90
25012;DHT22;13027;49.358;11.256;2022-08-21T03:08:43;15.80;99.90
25012;DHT22;13027;49.358;11.256;2022-08-21T03:11:12;15.90;99.90
25012;DHT22;13027;49.358;11.256;2022-08-21T03:13:38;15.80;99.90
25012;DHT22;13027;49.358;11.256;2022-08-21T03:16:04;15.80;99.90
25012;DHT22;13027;49.358;11.256;2022-08-21T03:18:29;15.80;99.90
25012;DHT22;13027;49.358;11.256;2022-08-21T03:20:55;15.80;99.90
25012;DHT22;13027;49.358;11.256;2022-08-21T03:23:20;15.80;99.90
25012;DHT22;13027;49.358;11.256;2022-08-21T03:25:46;15.80;99.90
25012;DHT22;13027;49.358;11.256;2022-08-21T03:28:14;15.90;99.90
25012;DHT22;13027;49.358;11.256;2022-08-21T03:30:41;15.90;99.90
25012;DHT22;13027;49.358;11.256;2022-08-21T03:33:07;15.80;99.90
25012;DHT22;13027;49.358;11.256;2022-08-21T03:35:32;15.90;99.90
25012;DHT22;13027;49.358;11.256;2022-08-21T03:37:58;15.90;99.90
25012;DHT22;13027;49.358;11.256;2022-08-21T03:40:23;16.00;99.90
25012;DHT22;13027;49.358;11.256;2022-08-21T03:42:49;15.50;99.90
25012;DHT22;13027;49.358;11.256;2022-08-21T03:45:15;16.00;99.90
25012;DHT22;13027;49.358;11.256;2022-08-21T03:48:03;15.90;99.90
25012;DHT22;13027;49.358;11.256;2022-08-21T03:50:29;16.00;99.90
25012;DHT22;13027;49.358;11.256;2022-08-21T03:52:56;15.90;99.90
25012;DHT22;13027;49.358;11.256;2022-08-21T03:55:21;15.90;99.90
25012;DHT22;13027;49.358;11.256;2022-08-21T03:57:47;16.00;99.90
25012;DHT22;13027;49.358;11.256;2022-08-21T04:00:13;16.00;99.90
25012;DHT22;13027;49.358;11.256;2022-08-21T04:02:39;15.90;99.90
25012;DHT22;13027;49.358;11.256;2022-08-21T04:05:05;15.90;99.90
25012;DHT22;13027;49.358;11.256;2022-08-21T04:07:31;15.90;99.90
25012;DHT22;13027;49.358;11.256;2022-08-21T04:09:57;15.90;99.90
25012;DHT22;13027;49.358;11.256;2022-08-21T04:12:22;15.90;99.90
25012;DHT22;13027;49.358;11.256;2022-08-21T04:14:49;15.90;99.90
25012;DHT22;13027;49.358;11.256;2022-08-21T04:17:15;15.50;99.90
25012;DHT22;13027;49.358;11.256;2022-08-21T04:19:41;16.00;99.90
25012;DHT22;13027;49.358;11.256;2022-08-21T04:22:06;16.00;99.90
25012;DHT22;13027;49.358;11.256;2022-08-21T04:24:32;16.00;99.90
25012;DHT22;13027;49.358;11.256;2022-08-21T04:26:57;16.10;99.90
25012;DHT22;13027;49.358;11.256;2022-08-21T04:29:23;16.00;99.90
25012;DHT22;13027;49.358;11.256;2022-08-21T04:31:48;16.00;99.90
25012;DHT22;13027;49.358;11.256;2022-08-21T04:34:14;16.10;99.90
25012;DHT22;13027;49.358;11.256;2022-08-21T04:36:39;16.10;99.90
25012;DHT22;13027;49.358;11.256;2022-08-21T04:39:05;16.20;99.90
25012;DHT22;13027;49.358;11.256;2022-08-21T04:41:30;16.20;99.90
25012;DHT22;13027;49.358;11.256;2022-08-21T04:43:56;16.20;99.90
25012;DHT22;13027;49.358;11.256;2022-08-21T04:46:22;16.10;99.90
25012;DHT22;13027;49.358;11.256;2022-08-21T04:48:48;16.10;99.90
25012;DHT22;13027;49.358;11.256;2022-08-21T04:51:24;16.20;99.90
25012;DHT22;13027;49.358;11.256;2022-08-21T04:53:51;16.20;99.90
25012;DHT22;13027;49.358;11.256;2022-08-21T04:56:20;16.20;99.90
25012;DHT22;13027;49.358;11.256;2022-08-21T04:58:46;16.20;99.90
25012;DHT22;13027;49.358;11.256;2022-08-21T05:01:15;16.20;99.90
25012;DHT22;13027;49.358;11.256;2022-08-21T05:03:42;16.30;99.90
25012;DHT22;13027;49.358;11.256;2022-08-21T05:06:09;16.20;99.90
25012;DHT22;13027;49.358;11.256;2022-08-21T05:08:36;16.10;99.90
25012;DHT22;13027;49.358;11.256;2022-08-21T05:11:02;16.10;99.90
25012;DHT22;13027;49.358;11.256;2022-08-21T05:13:28;16.20;99.90
25012;DHT22;13027;49.358;11.256;2022-08-21T05:15:53;16.30;99.90
25012;DHT22;13027;49.358;11.256;2022-08-21T05:18:19;16.20;99.90
25012;DHT22;13027;49.358;11.256;2022-08-21T05:20:44;16.20;99.90
25012;DHT22;13027;49.358;11.256;2022-08-21T05:23:11;16.30;99.90
25012;DHT22;13027;49.358;11.256;2022-08-21T05:25:37;16.40;99.90
25012;DHT22;13027;49.358;11.256;2022-08-21T05:28:03;16.40;99.90
25012;DHT22;13027;49.358;11.256;2022-08-21T05:30:28;16.30;99.90
25012;DHT22;13027;49.358;11.256;2022-08-21T05:32:58;16.30;99.90
25012;DHT22;13027;49.358;11.256;2022-08-21T05:35:24;16.30;99.90
25012;DHT22;13027;49.358;11.256;2022-08-21T05:37:49;16.30;99.90
25012;DHT22;13027;49.358;11.256;2022-08-21T05:40:15;16.10;99.90
25012;DHT22;13027;49.358;11.256;2022-08-21T05:42:40;16.20;99.90
25012;DHT22;13027;49.358;11.256;2022-08-21T05:45:06;16.10;99.90
25012;DHT22;13027;49.358;11.256;2022-08-21T05:47:32;16.20;99.90
25012;DHT22;13027;49.358;11.256;2022-08-21T05:49:57;16.30;99.90
25012;DHT22;13027;49.358;11.256;2022-08-21T05:52:23;16.50;99.90
25012;DHT22;13027;49.358;11.256;2022-08-21T05:54:48;16.50;99.90
25012;DHT22;13027;49.358;11.256;2022-08-21T05:57:14;16.50;99.90
25012;DHT22;13027;49.358;11.256;2022-08-21T05:59:39;16.50;99.90
25012;DHT22;13027;49.358;11.256;2022-08-21T06:02:05;16.60;99.90
25012;DHT22;13027;49.358;11.256;2022-08-21T06:04:35;16.40;99.90
25012;DHT22;13027;49.358;11.256;2022-08-21T06:07:00;16.60;99.90
25012;DHT22;13027;49.358;11.256;2022-08-21T06:09:26;16.60;99.90
25012;DHT22;13027;49.358;11.256;2022-08-21T06:11:51;16.70;99.90
25012;DHT22;13027;49.358;11.256;2022-08-21T06:14:17;16.60;99.90
25012;DHT22;13027;49.358;11.256;2022-08-21T06:16:42;16.70;99.90
25012;DHT22;13027;49.358;11.256;2022-08-21T06:19:08;16.70;99.90
25012;DHT22;13027;49.358;11.256;2022-08-21T06:21:33;16.70;99.90
25012;DHT22;13027;49.358;11.256;2022-08-21T06:23:59;16.60;99.90
25012;DHT22;13027;49.358;11.256;2022-08-21T06:26:24;16.70;99.90
25012;DHT22;13027;49.358;11.256;2022-08-21T06:28:50;16.70;99.90
25012;DHT22;13027;49.358;11.256;2022-08-21T06:31:23;16.70;99.90
25012;DHT22;13027;49.358;11.256;2022-08-21T06:33:49;16.80;99.90
25012;DHT22;13027;49.358;11.256;2022-08-21T06:36:15;16.90;99.90
25012;DHT22;13027;49.358;11.256;2022-08-21T06:38:41;17.00;99.90
25012;DHT22;13027;49.358;11.256;2022-08-21T06:41:07;16.90;99.90
25012;DHT22;13027;49.358;11.256;2022-08-21T06:43:33;16.90;99.90
25012;DHT22;13027;49.358;11.256;2022-08-21T06:45:58;16.90;99.90
25012;DHT22;13027;49.358;11.256;2022-08-21T06:48:24;17.00;99.90
25012;DHT22;13027;49.358;11.256;2022-08-21T06:50:49;17.00;99.90
25012;DHT22;13027;49.358;11.256;2022-08-21T06:53:17;17.00;99.90
25012;DHT22;13027;49.358;11.256;2022-08-21T06:55:43;17.00;99.90
25012;DHT22;13027;49.358;11.256;2022-08-21T06:58:09;17.10;99.90
25012;DHT22;13027;49.358;11.256;2022-08-21T07:00:35;17.10;99.90
25012;DHT22;13027;49.358;11.256;2022-08-21T07:03:01;17.30;99.90
25012;DHT22;13027;49.358;11.256;2022-08-21T07:05:27;17.40;99.90
25012;DHT22;13027;49.358;11.256;2022-08-21T07:07:52;17.20;99.90
25012;DHT22;13027;49.358;11.256;2022-08-21T07:10:18;17.30;99.90
25012;DHT22;13027;49.358;11.256;2022-08-21T07:12:43;17.40;99.90
25012;DHT22;13027;49.358;11.256;2022-08-21T07:15:09;17.40;99.90
25012;DHT22;13027;49.358;11.256;2022-08-21T07:17:35;17.40;99.90
25012;DHT22;13027;49.358;11.256;2022-08-21T07:20:00;17.50;99.90
25012;DHT22;13027;49.358;11.256;2022-08-21T07:22:26;17.60;99.90
25012;DHT22;13027;49.358;11.256;2022-08-21T07:24:53;17.60;99.90
25012;DHT22;13027;49.358;11.256;2022-08-21T07:27:18;17.60;99.90
25012;DHT22;13027;49.358;11.256;2022-08-21T07:29:44;17.80;99.90
25012;DHT22;13027;49.358;11.256;2022-08-21T07:32:09;17.70;99.90
25012;DHT22;13027;49.358;11.256;2022-08-21T07:34:35;17.70;99.90
25012;DHT22;13027;49.358;11.256;2022-08-21T07:37:00;17.70;99.90
25012;DHT22;13027;49.358;11.256;2022-08-21T07:39:26;17.70;99.90
25012;DHT22;13027;49.358;11.256;2022-08-21T07:41:51;17.70;99.90
25012;DHT22;13027;49.358;11.256;2022-08-21T07:44:17;17.80;99.90
25012;DHT22;13027;49.358;11.256;2022-08-21T07:46:42;17.70;99.90
25012;DHT22;13027;49.358;11.256;2022-08-21T07:49:08;17.80;99.90
25012;DHT22;13027;49.358;11.256;2022-08-21T07:51:33;17.90;99.90
25012;DHT22;13027;49.358;11.256;2022-08-21T07:53:59;18.00;99.90
25012;DHT22;13027;49.358;11.256;2022-08-21T07:56:25;18.10;99.90
25012;DHT22;13027;49.358;11.256;2022-08-21T07:58:51;18.20;99.90
25012;DHT22;13027;49.358;11.256;2022-08-21T08:01:17;18.30;99.90
25012;DHT22;13027;49.358;11.256;2022-08-21T08:03:42;18.50;99.90
25012;DHT22;13027;49.358;11.256;2022-08-21T08:06:08;18.50;99.90
25012;DHT22;13027;49.358;11.256;2022-08-21T08:08:40;18.60;99.90
25012;DHT22;13027;49.358;11.256;2022-08-21T08:11:06;18.50;99.90
25012;DHT22;13027;49.358;11.256;2022-08-21T08:13:37;18.40;99.90
25012;DHT22;13027;49.358;11.256;2022-08-21T08:16:03;18.40;99.90
25012;DHT22;13027;49.358;11.256;2022-08-21T08:18:28;18.50;99.90
25012;DHT22;13027;49.358;11.256;2022-08-21T08:20:54;18.90;99.90
25012;DHT22;13027;49.358;11.256;2022-08-21T08:23:20;18.90;99.90
25012;DHT22;13027;49.358;11.256;2022-08-21T08:25:45;19.00;99.90
25012;DHT22;13027;49.358;11.256;2022-08-21T08:28:11;19.00;99.90
25012;DHT22;13027;49.358;11.256;2022-08-21T08:30:37;18.90;99.90
25012;DHT22;13027;49.358;11.256;2022-08-21T08:33:02;19.00;99.90
25012;DHT22;13027;49.358;11.256;2022-08-21T08:35:28;19.00;99.90
25012;DHT22;13027;49.358;11.256;2022-08-21T08:37:54;19.00;99.90
25012;DHT22;13027;49.358;11.256;2022-08-21T08:40:22;18.90;99.90
25012;DHT22;13027;49.358;11.256;2022-08-21T08:42:50;19.00;99.90
25012;DHT22;13027;49.358;11.256;2022-08-21T08:45:17;19.20;99.90
25012;DHT22;13027;49.358;11.256;2022-08-21T08:47:44;19.10;99.90
25012;DHT22;13027;49.358;11.256;2022-08-21T08:50:12;19.20;99.90
25012;DHT22;13027;49.358;11.256;2022-08-21T08:52:43;19.40;99.90
25012;DHT22;13027;49.358;11.256;2022-08-21T08:55:21;19.40;99.90
25012;DHT22;13027;49.358;11.256;2022-08-21T08:57:47;19.50;99.90
25012;DHT22;13027;49.358;11.256;2022-08-21T09:00:14;19.60;99.90
25012;DHT22;13027;49.358;11.256;2022-08-21T09:02:42;19.70;99.90
25012;DHT22;13027;49.358;11.256;2022-08-21T09:05:09;20.00;99.90
25012;DHT22;13027;49.358;11.256;2022-08-21T09:07:46;20.10;99.90
25012;DHT22;13027;49.358;11.256;2022-08-21T09:15:29;20.00;99.90
25012;DHT22;13027;49.358;11.256;2022-08-21T09:20:32;20.00;99.90
25012;DHT22;13027;49.358;11.256;2022-08-21T09:25:53;20.40;99.90
25012;DHT22;13027;49.358;11.256;2022-08-21T09:28:20;20.30;99.90
25012;DHT22;13027;49.358;11.256;2022-08-21T09:30:45;20.50;99.90
25012;DHT22;13027;49.358;11.256;2022-08-21T09:33:11;20.60;99.90
25012;DHT22;13027;49.358;11.256;2022-08-21T09:35:47;20.70;99.90
25012;DHT22;13027;49.358;11.256;2022-08-21T09:38:22;20.50;99.90
25012;DHT22;13027;49.358;11.256;2022-08-21T09:40:54;20.50;99.90
25012;DHT22;13027;49.358;11.256;2022-08-21T09:43:21;20.40;99.90
25012;DHT22;13027;49.358;11.256;2022-08-21T09:45:47;20.40;99.90
25012;DHT22;13027;49.358;11.256;2022-08-21T09:48:14;20.50;99.90
25012;DHT22;13027;49.358;11.256;2022-08-21T09:50:41;20.80;99.90
25012;DHT22;13027;49.358;11.256;2022-08-21T09:53:15;21.20;99.90
25012;DHT22;13027;49.358;11.256;2022-08-21T09:55:58;21.60;99.90
25012;DHT22;13027;49.358;11.256;2022-08-21T09:58:44;21.70;99.90
25012;DHT22;13027;49.358;11.256;2022-08-21T10:01:20;22.10;99.90
25012;DHT22;13027;49.358;11.256;2022-08-21T10:03:46;22.10;99.90
25012;DHT22;13027;49.358;11.256;2022-08-21T10:06:26;22.40;99.90
25012;DHT22;13027;49.358;11.256;2022-08-21T10:09:03;22.40;99.90
25012;DHT22;13027;49.358;11.256;2022-08-21T10:11:29;22.30;99.90
25012;DHT22;13027;49.358;11.256;2022-08-21T10:14:11;22.10;99.90
25012;DHT22;13027;49.358;11.256;2022-08-21T10:19:11;22.40;99.90
25012;DHT22;13027;49.358;11.256;2022-08-21T10:21:42;22.40;99.90
25012;DHT22;13027;49.358;11.256;2022-08-21T10:24:12;22.60;99.90
25012;DHT22;13027;49.358;11.256;2022-08-21T10:34:23;22.30;99.90
25012;DHT22;13027;49.358;11.256;2022-08-21T10:36:55;22.30;99.90
25012;DHT22;13027;49.358;11.256;2022-08-21T10:39:34;22.10;99.90
25012;DHT22;13027;49.358;11.256;2022-08-21T11:00:22;22.50;99.90
25012;DHT22;13027;49.358;11.256;2022-08-21T11:03:05;22.30;99.90
25012;DHT22;13027;49.358;11.256;2022-08-21T11:05:33;22.20;99.90
25012;DHT22;13027;49.358;11.256;2022-08-21T11:08:43;22.10;99.90
25012;DHT22;13027;49.358;11.256;2022-08-21T11:10:52;21.90;99.90
25012;DHT22;13027;49.358;11.256;2022-08-21T11:13:19;21.90;99.90
25012;DHT22;13027;49.358;11.256;2022-08-21T11:18:17;22.10;99.90
25012;DHT22;13027;49.358;11.256;2022-08-21T11:20:47;22.30;99.90
25012;DHT22;13027;49.358;11.256;2022-08-21T11:23:16;22.30;99.90
25012;DHT22;13027;49.358;11.256;2022-08-21T11:25:45;22.60;99.90
25012;DHT22;13027;49.358;11.256;2022-08-21T11:28:17;22.80;99.90
25012;DHT22;13027;49.358;11.256;2022-08-21T11:34:14;23.10;99.90
25012;DHT22;13027;49.358;11.256;2022-08-21T11:36:23;23.20;99.90
25012;DHT22;13027;49.358;11.256;2022-08-21T11:41:36;23.40;99.90
25012;DHT22;13027;49.358;11.256;2022-08-21T11:46:56;23.40;99.90
25012;DHT22;13027;49.358;11.256;2022-08-21T11:49:31;23.40;99.90
25012;DHT22;13027;49.358;11.256;2022-08-21T11:52:07;23.00;99.90
25012;DHT22;13027;49.358;11.256;2022-08-21T11:57:21;22.60;99.90
25012;DHT22;13027;49.358;11.256;2022-08-21T11:59:53;22.30;99.90
25012;DHT22;13027;49.358;11.256;2022-08-21T12:02:21;22.30;99.90
25012;DHT22;13027;49.358;11.256;2022-08-21T12:04:55;22.30;99.90
25012;DHT22;13027;49.358;11.256;2022-08-21T12:07:36;22.60;99.90
25012;DHT22;13027;49.358;11.256;2022-08-21T12:10:03;22.90;99.90
25012;DHT22;13027;49.358;11.256;2022-08-21T12:12:31;23.20;99.90
25012;DHT22;13027;49.358;11.256;2022-08-21T12:17:51;23.70;99.90
25012;DHT22;13027;49.358;11.256;2022-08-21T12:20:22;23.80;99.90
25012;DHT22;13027;49.358;11.256;2022-08-21T12:22:52;23.80;99.90
25012;DHT22;13027;49.358;11.256;2022-08-21T12:25:19;23.90;99.90
25012;DHT22;13027;49.358;11.256;2022-08-21T12:30:20;23.70;99.90
25012;DHT22;13027;49.358;11.256;2022-08-21T12:32:53;23.60;99.90
25012;DHT22;13027;49.358;11.256;2022-08-21T12:35:30;23.60;99.90
25012;DHT22;13027;49.358;11.256;2022-08-21T12:37:58;23.70;99.90
25012;DHT22;13027;49.358;11.256;2022-08-21T12:40:26;23.80;99.90
25012;DHT22;13027;49.358;11.256;2022-08-21T12:42:53;23.80;99.90
25012;DHT22;13027;49.358;11.256;2022-08-21T12:45:27;23.90;99.90
25012;DHT22;13027;49.358;11.256;2022-08-21T12:48:04;24.00;99.90
25012;DHT22;13027;49.358;11.256;2022-08-21T12:50:46;24.10;99.90
25012;DHT22;13027;49.358;11.256;2022-08-21T12:55:48;24.00;99.90
25012;DHT22;13027;49.358;11.256;2022-08-21T12:58:20;23.90;99.90
25012;DHT22;13027;49.358;11.256;2022-08-21T13:00:47;24.00;99.90
25012;DHT22;13027;49.358;11.256;2022-08-21T13:03:14;23.60;99.90
25012;DHT22;13027;49.358;11.256;2022-08-21T13:05:40;23.50;99.90
25012;DHT22;13027;49.358;11.256;2022-08-21T13:08:06;23.40;99.90
25012;DHT22;13027;49.358;11.256;2022-08-21T13:10:33;23.50;99.90
25012;DHT22;13027;49.358;11.256;2022-08-21T13:13:21;23.60;99.90
25012;DHT22;13027;49.358;11.256;2022-08-21T13:15:45;23.70;99.90
25012;DHT22;13027;49.358;11.256;2022-08-21T13:18:19;23.70;99.90
25012;DHT22;13027;49.358;11.256;2022-08-21T13:20:45;23.60;99.90
25012;DHT22;13027;49.358;11.256;2022-08-21T13:23:25;23.60;99.90
25012;DHT22;13027;49.358;11.256;2022-08-21T13:25:51;23.70;99.90
25012;DHT22;13027;49.358;11.256;2022-08-21T13:28:17;23.90;99.90
25012;DHT22;13027;49.358;11.256;2022-08-21T13:30:50;24.10;99.90
25012;DHT22;13027;49.358;11.256;2022-08-21T13:33:16;24.50;99.90
25012;DHT22;13027;49.358;11.256;2022-08-21T13:35:46;24.90;99.90
25012;DHT22;13027;49.358;11.256;2022-08-21T13:38:12;24.90;99.90
25012;DHT22;13027;49.358;11.256;2022-08-21T13:40:40;24.80;99.90
25012;DHT22;13027;49.358;11.256;2022-08-21T13:43:11;24.90;99.90
25012;DHT22;13027;49.358;11.256;2022-08-21T13:45:37;25.10;99.90
25012;DHT22;13027;49.358;11.256;2022-08-21T13:48:03;25.20;99.90
25012;DHT22;13027;49.358;11.256;2022-08-21T13:50:29;24.90;99.90
25012;DHT22;13027;49.358;11.256;2022-08-21T13:53:01;24.90;99.90
25012;DHT22;13027;49.358;11.256;2022-08-21T13:55:34;24.80;99.90
25012;DHT22;13027;49.358;11.256;2022-08-21T13:58:01;24.50;99.90
25012;DHT22;13027;49.358;11.256;2022-08-21T14:00:29;24.20;99.90
25012;DHT22;13027;49.358;11.256;2022-08-21T14:03:00;23.90;99.90
25012;DHT22;13027;49.358;11.256;2022-08-21T14:05:27;23.90;99.90
25012;DHT22;13027;49.358;11.256;2022-08-21T14:07:59;24.00;99.90
25012;DHT22;13027;49.358;11.256;2022-08-21T14:10:27;24.30;99.90
25012;DHT22;13027;49.358;11.256;2022-08-21T14:12:54;24.10;99.90
25012;DHT22;13027;49.358;11.256;2022-08-21T14:15:24;24.00;99.90
25012;DHT22;13027;49.358;11.256;2022-08-21T14:17:50;24.20;99.90
25012;DHT22;13027;49.358;11.256;2022-08-21T14:20:30;24.30;99.90
25012;DHT22;13027;49.358;11.256;2022-08-21T14:22:56;24.50;99.90
25012;DHT22;13027;49.358;11.256;2022-08-21T14:30:27;24.50;99.90
25012;DHT22;13027;49.358;11.256;2022-08-21T14:32:53;24.40;99.90
25012;DHT22;13027;49.358;11.256;2022-08-21T14:35:18;24.20;99.90
25012;DHT22;13027;49.358;11.256;2022-08-21T14:37:46;24.30;99.90
25012;DHT22;13027;49.358;11.256;2022-08-21T14:40:12;24.30;99.90
25012;DHT22;13027;49.358;11.256;2022-08-21T14:42:39;24.20;99.90
25012;DHT22;13027;49.358;11.256;2022-08-21T14:45:26;24.10;99.90
25012;DHT22;13027;49.358;11.256;2022-08-21T14:47:52;24.10;99.90
25012;DHT22;13027;49.358;11.256;2022-08-21T14:50:18;24.20;99.90
25012;DHT22;13027;49.358;11.256;2022-08-21T14:52:44;24.30;99.90
25012;DHT22;13027;49.358;11.256;2022-08-21T14:55:11;24.20;99.90
25012;DHT22;13027;49.358;11.256;2022-08-21T14:57:41;24.30;99.90
25012;DHT22;13027;49.358;11.256;2022-08-21T15:00:11;24.40;99.90
25012;DHT22;13027;49.358;11.256;2022-08-21T15:02:36;24.40;99.90
25012;DHT22;13027;49.358;11.256;2022-08-21T15:05:02;24.50;99.90
25012;DHT22;13027;49.358;11.256;2022-08-21T15:07:28;24.50;99.90
25012;DHT22;13027;49.358;11.256;2022-08-21T15:09:54;24.40;99.90
25012;DHT22;13027;49.358;11.256;2022-08-21T15:12:19;24.60;99.90
25012;DHT22;13027;49.358;11.256;2022-08-21T15:14:45;24.80;99.90
25012;DHT22;13027;49.358;11.256;2022-08-21T15:17:10;24.90;99.90
25012;DHT22;13027;49.358;11.256;2022-08-21T15:19:37;24.70;99.90
25012;DHT22;13027;49.358;11.256;2022-08-21T15:22:03;24.70;99.90
25012;DHT22;13027;49.358;11.256;2022-08-21T15:24:29;24.80;99.90
25012;DHT22;13027;49.358;11.256;2022-08-21T15:26:54;24.90;99.90
25012;DHT22;13027;49.358;11.256;2022-08-21T15:29:21;24.90;99.90
25012;DHT22;13027;49.358;11.256;2022-08-21T15:31:56;24.70;99.90
25012;DHT22;13027;49.358;11.256;2022-08-21T15:34:23;24.70;99.90
25012;DHT22;13027;49.358;11.256;2022-08-21T15:36:48;24.80;99.90
25012;DHT22;13027;49.358;11.256;2022-08-21T15:39:14;24.80;99.90
25012;DHT22;13027;49.358;11.256;2022-08-21T15:41:40;24.80;99.90
25012;DHT22;13027;49.358;11.256;2022-08-21T15:44:05;24.80;99.90
25012;DHT22;13027;49.358;11.256;2022-08-21T15:46:31;24.80;99.90
25012;DHT22;13027;49.358;11.256;2022-08-21T15:48:57;24.80;99.90
25012;DHT22;13027;49.358;11.256;2022-08-21T15:51:22;24.80;99.90
25012;DHT22;13027;49.358;11.256;2022-08-21T15:53:48;24.80;99.90
25012;DHT22;13027;49.358;11.256;2022-08-21T15:56:19;24.90;99.90
25012;DHT22;13027;49.358;11.256;2022-08-21T15:58:47;24.80;99.90
25012;DHT22;13027;49.358;11.256;2022-08-21T16:01:13;24.60;99.90
25012;DHT22;13027;49.358;11.256;2022-08-21T16:03:39;24.60;99.90
25012;DHT22;13027;49.358;11.256;2022-08-21T16:06:04;24.60;99.90
25012;DHT22;13027;49.358;11.256;2022-08-21T16:08:30;24.70;99.90
25012;DHT22;13027;49.358;11.256;2022-08-21T16:10:55;24.80;99.90
25012;DHT22;13027;49.358;11.256;2022-08-21T16:13:25;24.80;99.90
25012;DHT22;13027;49.358;11.256;2022-08-21T16:15:51;24.80;99.90
25012;DHT22;13027;49.358;11.256;2022-08-21T16:18:17;24.80;99.90
25012;DHT22;13027;49.358;11.256;2022-08-21T16:20:43;24.80;99.90
25012;DHT22;13027;49.358;11.256;2022-08-21T16:23:08;24.80;99.90